Latest Coastal Weather Observations for Bedout Island

IDW60701

Issued at 11:35 am WST Sunday 26 October 2014 (issued every 10 minutes, with the page automatically refreshed every 10 minutes)

About coastal observations | Map of coastal stations | Coastal observations for WA | Marine services | Other Formats
Station Details ID: 004100 Name: BEDOUT ISLAND Lat: -19.59 Lon: 119.10 Height: 8.6 m
Data from the previous 72 hours. | See also: Recent months for locations in Western Australia
Date/Time
WST
Temp

°C
Wind Pressure Rain
since 9am
mm
Weather Cloud Vis
km
Sea
Height
m
Swell
Dir
 
Speed
knots
Gust
knots
hPa Trend Height
m
Period
s
Dir
26/11:30am 32.8 WNW 5 6 1011.5 - - - - - - - - -
26/11:00am 32.7 E 3 5 1011.9 - - - - - - - - -
26/10:30am 31.8 SE 4 6 1012.3 - - - - - - - - -
26/10:00am 32.2 SSE 6 8 1012.7 - - - - - - - - -
26/09:30am 31.0 S 7 9 1012.8 - - - - - - - - -
26/09:00am 30.8 S 6 8 1012.8 - - - - - - - - -
26/08:30am 29.7 S 8 9 1012.9 - - - - - - - - -
26/08:00am 28.0 S 8 10 1012.5 - - - - - - - - -
26/07:30am 28.7 SSE 9 11 1012.3 - - - - - - - - -
26/07:00am 26.9 SE 10 11 1012.0 - - - - - - - - -
26/06:30am 26.1 SSE 11 12 1011.6 - - - - - - - - -
26/06:00am 26.3 SSE 15 18 1011.2 - - - - - - - - -
26/05:30am 25.9 SSE 14 16 1010.7 - - - - - - - - -
26/05:00am 25.7 SSE 12 15 1010.4 - - - - - - - - -
26/04:30am 25.0 SSE 10 11 1009.9 - - - - - - - - -
26/04:00am 24.6 E 2 6 1009.4 - - - - - - - - -
26/03:30am 24.8 ENE 4 5 1009.3 - - - - - - - - -
26/03:00am 24.8 NW 3 5 1009.0 - - - - - - - - -
26/02:30am 25.1 WNW 8 9 1009.0 - - - - - - - - -
26/02:00am 24.8 NNW 5 7 1009.7 - - - - - - - - -
26/01:30am 24.9 NNW 5 7 1010.1 - - - - - - - - -
26/01:00am 24.9 N 2 4 1010.6 - - - - - - - - -
26/12:30am 25.6 S 4 8 1011.1 - - - - - - - - -
26/12:00am 26.3 ESE 14 21 1011.7 - - - - - - - - -
 
Date/Time
WST
Temp

°C
Wind Pressure Rain
since 9am
mm
Weather Cloud Vis
km
Sea
Height
m
Swell
Dir
 
Speed
knots
Gust
knots
hPa Trend Height
m
Period
s
Dir
25/11:30pm 26.2 W 16 19 1010.7 - - - - - - - - -
25/11:00pm 26.1 WNW 16 18 1011.0 - - - - - - - - -
25/10:30pm 26.4 WNW 16 19 1011.7 - - - - - - - - -
25/10:00pm 26.3 WNW 13 14 1012.1 - - - - - - - - -
25/09:30pm 26.3 W 14 15 1012.2 - - - - - - - - -
25/09:00pm 26.4 W 14 15 1012.0 - - - - - - - - -
25/08:30pm 26.5 W 15 17 1012.0 - - - - - - - - -
25/08:00pm 26.6 W 16 18 1011.8 - - - - - - - - -
25/07:30pm 26.6 W 16 18 1011.7 - - - - - - - - -
25/07:00pm 26.5 W 14 15 1011.7 - - - - - - - - -
25/06:30pm 26.7 W 15 17 1011.5 - - - - - - - - -
25/06:00pm 27.1 W 14 16 1011.1 - - - - - - - - -
25/05:30pm 27.8 W 15 17 1010.8 - - - - - - - - -
25/05:00pm 28.3 W 14 16 1010.7 - - - - - - - - -
25/04:30pm 29.0 W 14 15 1010.8 - - - - - - - - -
25/04:00pm 29.7 WNW 13 16 1010.7 - - - - - - - - -
25/03:30pm 30.4 NW 10 13 1010.8 - - - - - - - - -
25/03:00pm 30.0 NNW 8 10 1010.7 - - - - - - - - -
25/02:30pm 30.0 N 10 12 1011.1 - - - - - - - - -
25/02:00pm 30.2 N 9 11 1011.3 - - - - - - - - -
25/01:30pm 30.3 NNW 9 11 1011.7 - - - - - - - - -
25/01:00pm 29.6 NNW 7 9 1011.9 - - - - - - - - -
25/12:30pm 30.6 NW 7 8 1012.2 - - - - - - - - -
25/12:00pm 30.5 N 6 7 1012.5 - - - - - - - - -
25/11:30am 31.0 E 6 6 1013.0 - - - - - - - - -
25/11:00am 30.8 ESE 6 7 1013.1 - - - - - - - - -
25/10:30am 30.8 ESE 6 7 1013.3 - - - - - - - - -
25/10:00am 30.8 ESE 6 6 1013.5 - - - - - - - - -
25/09:30am 29.9 SE 5 6 1013.5 - - - - - - - - -
25/09:00am 29.6 SSW 5 7 1013.4 - - - - - - - - -
25/08:30am 29.6 SSW 5 6 1013.7 - - - - - - - - -
25/08:00am 28.7 SSW 6 9 1013.3 - - - - - - - - -
25/07:30am 27.9 SW 7 8 1013.1 - - - - - - - - -
25/07:00am 26.8 WSW 10 11 1012.5 - - - - - - - - -
25/06:30am 25.9 W 10 12 1012.4 - - - - - - - - -
25/06:00am 25.3 W 13 16 1011.8 - - - - - - - - -
25/05:30am 25.2 W 15 17 1011.5 - - - - - - - - -
25/05:00am 25.1 W 19 22 1010.9 - - - - - - - - -
25/04:30am 25.3 W 19 22 1010.8 - - - - - - - - -
25/04:00am 25.3 W 21 23 1010.6 - - - - - - - - -
25/03:30am 25.4 W 20 23 1010.4 - - - - - - - - -
25/03:00am 25.4 WNW 19 22 1010.4 - - - - - - - - -
25/02:30am 25.4 W 17 20 1010.6 - - - - - - - - -
25/02:00am 25.2 W 15 17 1010.6 - - - - - - - - -
25/01:30am 25.2 WNW 15 17 1010.8 - - - - - - - - -
25/01:00am 25.3 WNW 16 19 1010.9 - - - - - - - - -
25/12:30am 25.4 WNW 15 18 1011.3 - - - - - - - - -
25/12:00am 25.3 WNW 15 17 1011.7 - - - - - - - - -
 
Date/Time
WST
Temp

°C
Wind Pressure Rain
since 9am
mm
Weather Cloud Vis
km
Sea
Height
m
Swell
Dir
 
Speed
knots
Gust
knots
hPa Trend Height
m
Period
s
Dir
24/11:30pm 25.4 NW 15 18 1011.9 - - - - - - - - -
24/11:00pm 25.4 NW 15 17 1012.1 - - - - - - - - -
24/10:30pm 25.3 NNW 13 15 1012.3 - - - - - - - - -
24/10:00pm 25.3 NNW 12 14 1012.5 - - - - - - - - -
24/09:30pm 25.4 NW 13 15 1012.5 - - - - - - - - -
24/09:00pm 25.5 NW 14 15 1012.1 - - - - - - - - -
24/08:30pm 25.6 NW 15 18 1012.0 - - - - - - - - -
24/08:00pm 25.6 NNW 15 17 1011.6 - - - - - - - - -
24/07:30pm 25.5 NNW 13 16 1011.2 - - - - - - - - -
24/07:00pm 25.6 NNW 13 16 1010.8 - - - - - - - - -
24/06:30pm 25.8 NNW 14 17 1010.5 - - - - - - - - -
24/06:00pm 26.1 N 14 17 1010.0 - - - - - - - - -
24/05:30pm 26.6 N 14 17 1009.7 - - - - - - - - -
24/05:00pm 27.3 N 14 16 1009.4 - - - - - - - - -
24/04:30pm 28.0 N 14 16 1009.3 - - - - - - - - -
24/04:00pm 28.5 NNE 12 15 1009.3 - - - - - - - - -
24/03:30pm 29.2 NNE 13 15 1009.4 - - - - - - - - -
24/03:00pm 29.8 NNE 12 14 1009.5 - - - - - - - - -
24/02:30pm 30.0 NNE 11 13 1009.8 - - - - - - - - -
24/02:00pm 30.6 NNE 10 11 1010.1 - - - - - - - - -
24/01:30pm 30.5 NNE 9 10 1010.1 - - - - - - - - -
24/01:00pm 31.1 NE 8 9 1010.4 - - - - - - - - -
24/12:30pm 30.7 NE 7 8 1010.7 - - - - - - - - -
24/12:00pm 30.4 NNE 6 8 1010.8 - - - - - - - - -
24/11:30am 29.4 NE 5 6 1010.8 - - - - - - - - -
24/11:00am 30.1 N 5 6 1010.9 - - - - - - - - -
24/10:30am 29.4 NW 5 8 1011.1 - - - - - - - - -
24/10:00am 28.7 NW 5 7 1011.4 - - - - - - - - -
24/09:30am 29.0 NNW 6 8 1011.5 - - - - - - - - -
24/09:00am 28.6 NW 6 7 1011.3 - - - - - - - - -
24/08:30am 28.1 NW 7 9 1011.4 - - - - - - - - -
24/08:00am 27.8 NNW 6 8 1011.3 - - - - - - - - -
24/07:30am 27.1 NW 7 9 1011.1 - - - - - - - - -
24/07:00am 26.1 NW 7 9 1010.8 - - - - - - - - -
24/06:30am 25.2 NNW 6 8 1010.9 - - - - - - - - -
24/06:00am 24.7 NW 9 11 1010.3 - - - - - - - - -
24/05:30am 24.6 NW 10 13 1009.8 - - - - - - - - -
24/05:00am 24.7 NW 13 15 1009.3 - - - - - - - - -
24/04:30am 24.7 NW 13 16 1009.1 - - - - - - - - -
24/04:00am 24.7 NW 10 11 1009.2 - - - - - - - - -
24/03:30am 24.8 NW 9 11 1009.1 - - - - - - - - -
24/03:00am 24.8 NW 11 13 1009.0 - - - - - - - - -
24/02:30am 24.9 NW 11 14 1009.0 - - - - - - - - -
24/02:00am 24.9 NW 10 12 1009.5 - - - - - - - - -
24/01:30am 24.9 NNW 8 10 1010.0 - - - - - - - - -
24/01:00am 25.0 NW 9 11 1010.3 - - - - - - - - -
24/12:30am 25.0 NNW 8 10 1010.6 - - - - - - - - -
24/12:00am 25.1 N 8 9 1011.0 - - - - - - - - -
 
Date/Time
WST
Temp

°C
Wind Pressure Rain
since 9am
mm
Weather Cloud Vis
km
Sea
Height
m
Swell
Dir
 
Speed
knots
Gust
knots
hPa Trend Height
m
Period
s
Dir
23/11:30pm 25.2 NNE 7 10 1011.7 - - - - - - - - -
23/11:00pm 25.0 N 6 7 1011.6 - - - - - - - - -
23/10:30pm 25.2 NNW 7 8 1011.6 - - - - - - - - -
23/10:00pm 25.5 N 7 9 1011.7 - - - - - - - - -
23/09:30pm 25.5 NNW 8 11 1011.7 - - - - - - - - -
23/09:00pm 26.1 W 13 17 1010.9 - - - - - - - - -
23/08:30pm 26.2 W 15 17 1010.3 - - - - - - - - -
23/08:00pm 26.3 W 14 16 1010.2 - - - - - - - - -
23/07:30pm 26.5 W 17 20 1009.6 - - - - - - - - -
23/07:00pm 26.5 W 17 19 1009.3 - - - - - - - - -
23/06:30pm 26.7 W 17 19 1009.0 - - - - - - - - -
23/06:00pm 27.3 W 17 19 1008.6 - - - - - - - - -
23/05:30pm 28.2 W 14 16 1008.6 - - - - - - - - -
23/05:00pm 29.0 W 16 18 1008.4 - - - - - - - - -
23/04:30pm 29.7 W 16 18 1008.2 - - - - - - - - -
23/04:00pm 29.9 W 15 17 1008.3 - - - - - - - - -
23/03:30pm 30.7 W 14 17 1008.5 - - - - - - - - -
23/03:00pm 30.9 W 15 17 1008.5 - - - - - - - - -
23/02:30pm 31.7 W 11 13 1008.8 - - - - - - - - -
23/02:00pm 31.3 W 11 13 1009.0 - - - - - - - - -
23/01:30pm 31.5 W 11 13 1009.3 - - - - - - - - -
23/01:00pm 31.3 W 9 11 1009.7 - - - - - - - - -
23/12:30pm 31.4 W 9 10 1010.1 - - - - - - - - -
23/12:00pm 32.4 W 6 8 1010.4 - - - - - - - - -

Other Formats:

Comma delimited format used in spreadsheet applications
http://www.bom.gov.au/fwo/IDW60701/IDW60701.94310.axf

JavaScript Object Notation format (JSON) in row-major order
http://www.bom.gov.au/fwo/IDW60701/IDW60701.94310.json